createdAt,value
2018-12-29T00:00:23.642Z,4.49
2018-12-29T00:15:26.485Z,4.26
2018-12-29T00:30:29.273Z,4.27
2018-12-29T00:45:31.812Z,4.47
2018-12-29T01:00:34.362Z,4.46
2018-12-29T01:15:36.956Z,4.44
2018-12-29T01:30:39.732Z,4.37
2018-12-29T01:45:42.547Z,4.32
2018-12-29T02:00:46.600Z,4.19
2018-12-29T02:15:49.447Z,4.14
2018-12-29T02:30:53.469Z,4.06
2018-12-29T02:45:57.176Z,4.06
2018-12-29T03:00:59.970Z,3.91
2018-12-29T03:16:02.525Z,3.72
2018-12-29T03:31:06.763Z,3.79
2018-12-29T03:46:10.175Z,3.68
2018-12-29T04:01:13.010Z,3.69
2018-12-29T04:16:16.553Z,3.73
2018-12-29T04:31:20.241Z,3.69
2018-12-29T04:46:23.212Z,3.73
2018-12-29T05:01:25.741Z,3.79
2018-12-29T05:16:29.176Z,3.85
2018-12-29T05:31:32.953Z,3.81
2018-12-29T05:46:36.311Z,3.69
2018-12-29T06:01:40.217Z,3.62
2018-12-29T06:16:47.682Z,3.64
2018-12-29T06:31:50.913Z,3.58
2018-12-29T06:46:53.925Z,3.55
2018-12-29T07:01:56.700Z,3.61
2018-12-29T07:17:00.068Z,4.46
2018-12-29T07:32:04.833Z,4.02
2018-12-29T07:47:08.313Z,4.21
2018-12-29T08:02:11.908Z,4.41
2018-12-29T08:17:15.250Z,4.34
2018-12-29T08:32:17.980Z,4.38
2018-12-29T08:47:21.698Z,4.39
2018-12-29T09:02:24.463Z,4.48
2018-12-29T09:17:29.763Z,4.26
2018-12-29T09:32:32.394Z,3.92
2018-12-29T09:47:35.262Z,3.85
2018-12-29T10:02:37.817Z,4.26
2018-12-29T10:17:40.380Z,4.34
2018-12-29T10:32:43.174Z,4.45
2018-12-29T10:47:47.389Z,4.43
2018-12-29T11:02:50.853Z,4.45
2018-12-29T11:17:53.597Z,4.38
2018-12-29T11:32:57.006Z,3.91
2018-12-29T11:47:59.866Z,3.80
2018-12-29T12:03:02.702Z,3.60
2018-12-29T12:18:05.484Z,3.53
2018-12-29T12:33:08.038Z,3.45
2018-12-29T12:48:10.620Z,3.48
2018-12-29T13:03:14.189Z,3.30
2018-12-29T13:18:17.886Z,3.16
2018-12-29T13:33:21.205Z,3.00
2018-12-29T13:48:24.124Z,3.08
2018-12-29T14:03:27.917Z,2.99
2018-12-29T14:18:30.777Z,2.87
2018-12-29T14:33:34.480Z,2.78
2018-12-29T14:48:38.568Z,2.74
2018-12-29T15:03:41.145Z,2.71
2018-12-29T15:18:45.075Z,2.65
2018-12-29T15:33:47.716Z,2.57
2018-12-29T15:48:53.209Z,2.44
2018-12-29T16:03:57.094Z,2.39
2018-12-29T16:19:00.182Z,2.34
2018-12-29T16:34:03.503Z,2.36
2018-12-29T16:49:07.349Z,2.24
2018-12-29T17:04:10.109Z,2.26
2018-12-29T17:19:15.063Z,2.23
2018-12-29T17:34:18.806Z,2.18
2018-12-29T17:49:22.717Z,2.10
2018-12-29T18:04:27.309Z,2.11
2018-12-29T18:19:30.812Z,1.99
2018-12-29T18:34:33.642Z,1.91
2018-12-29T18:49:38.597Z,1.91
2018-12-29T19:04:41.436Z,1.89
2018-12-29T19:19:46.497Z,1.86
2018-12-29T19:34:49.211Z,1.83
2018-12-29T19:49:53.825Z,1.84
2018-12-29T20:04:57.406Z,1.87
2018-12-29T20:20:01.562Z,1.86
2018-12-29T20:35:06.623Z,1.83
2018-12-29T20:50:11.544Z,1.80
2018-12-29T21:05:15.498Z,1.80
2018-12-29T21:20:29.151Z,1.80
2018-12-29T21:35:31.757Z,1.85
2018-12-29T21:50:34.434Z,1.86
2018-12-29T22:05:37.808Z,1.85
2018-12-29T22:20:41.882Z,1.85
2018-12-29T22:35:45.661Z,1.80
2018-12-29T22:50:48.495Z,1.54
2018-12-29T23:05:51.258Z,1.82
2018-12-29T23:20:54.544Z,1.81
2018-12-29T23:35:57.117Z,1.81
2018-12-29T23:51:05.491Z,1.78
